Aérodrome :
LOGIN :

S'inscrire | Disclaimer

   EN    FR    IT 

 










Légende :    VFR   VFR Marginal   IFR   IFR Intensif   IFR Très Intensif
Visi : 
Plafond : 
>= 8 km
>= 3000ft
5 à 8 km
1000 à 3000 ft
1500m à 5 km
500 à 1000 ft
800 à 1500m
200 à 500 ft
< 800m
< 200 ft
Symboles :   Orages  Brouillard  Fortes neiges  Fortes précipitations  Vent > 20 kt
SIGMETs :   Divers  Orages  Givrage  Turbulence  Onde Orograph.  Cendres Volcan.






- Altitude de l'aérodrome : 13 ft
- Code IATA : SNR


LFRZ - St-Nazaire

DERNIER METAR :
  • 180230Z AUTO 23003KT 9999 FEW040/// ///TCU 05/04 Q1029 TEMPO 24015G25KT 4000 SHRA

METARs EXPIRÉS :
  • 180200Z AUTO 27005KT 9999 ///TCU 06/05 Q1029 TEMPO 24015G25KT 4000 SHRA
  • 180130Z AUTO 25008KT 9999 FEW025/// SCT038/// BKN046/// ///TCU 07/05 Q1029 TEMPO 24015G25KT 4000 SHRA
  • 180100Z AUTO 24007KT 9999 FEW034/// SCT048/// ///TCU 06/04 Q1029 BECMG SCT030

TAF AMD TAF LFRZ
Valide du 18 à 00h jusqu'au 19 à 00h UTC


180057Z 1800/1824 25007KT 9999 SCT030
TEMPO 1800/1818 24015G25KT 4000 SHRA SCT020TCU
TEMPO 1822/1824 27016G28KT 3000 SHRA BKN018



MET'MAP, la Météo Aéronautique d'un coup d'oeil ! - Copyright ORBIFLY Décembre 2007 - Disclaimer

ORBIFLY MET'MAP TEAM :

Programmation & Développement : Alexandra Zaïnal
Sur une idée originale de : Baudouin d'Aumeries
Assistance à la programmation : Marc-Olivier Méhu
Soutien technique & logistique : Manuel Goepfert

Contact : metmap@orbifly.com




SOURCES & CREDITS :

   NOAA